Lamont, WA

9:53 AM PDT on July 31, 2014 (GMT -0700)
Winona-Silk Stocking Road (KWAENDIC4) Elev 1483 ft | 46.94 °N, 117.80 °W | Change Station

Current weather conditions updated 10 seconds ago

Clear
Clear
87.1 °F
Feels Like 84 °F
N
5.8
Wind Variable Wind from SW
Gusts 8.1 mph

Today is forecast to be Cooler than yesterday.

Today
High -- | Low -- °F
--% Chance of Precip.
Yesterday
High -- | Low -- °F
Precip. -- in
5:28 AM 8:25 PM
Waxing Crescent, 19% visible
Pressure 30.04 in
Visibility 10.0 miles
Clouds Clear
Heat Index 84 °F
Dew Point 42 °F
Humidity 21%
Rainfall 0.00 in
Snow Depth Not available.
UV 4 out of 12
Pollen 6.50 out of 12
Air Quality Not available.
Flu Activity Not available.
METAR KSKA 311558Z AUTO 13004KT 10SM CLR 26/07 A3008 RMK AO2 SLP170 T02610072

More Conditions Fewer Conditions

Pressure 30.04 in
Visibility 10.0 miles
Clouds Clear
Heat Index 84 °F
Dew Point 42 °F
Humidity 21%
Rainfall 0.00 in
Snow Depth Not available.
UV 4 out of 12
Pollen 6.50 out of 12
Air Quality Not available.
Flu Activity Not available.
METAR KSKA 311558Z AUTO 13004KT 10SM CLR 26/07 A3008 RMK AO2 SLP170 T02610072

More Conditions Fewer Conditions

10-Day Weather Forecast

Almanac

Astronomy

Jul. 31, 2014 Rise Set
Actual Time 5:28 AM PDT 8:25 PM PDT
Civil Twilight 4:53 AM PDT 9:01 PM PDT
Nautical Twilight 4:07 AM PDT 9:46 PM PDT
Astronomical Twilight 3:11 AM PDT 10:41 PM PDT
Moon 10:22 AM PDT 10:17 PM PDT
Length of Visible Light 16h 08m
Length of Day
14h 56m
Tomorrow will be 2m 38s shorter.
Waxing Crescent, 19% of the Moon is Illuminated
Today
Waxing Crescent
Aug 3
First Quarter
Aug 10
Full
Aug 17
Last Quarter
Aug 25
New

Today's Extremes

State Highs State Lows

Community

WunderPhotos

Upload Photos

1,739,370 photos uploaded!

WunderBlogs® & News

Nearby

Snow Depth

Station Depth Elevation
Quartz Peak 1 in 4700 ft
Moses Mountain 1 in 5300 ft
Bunchgrass Meadow 0 in 5000 ft
Sentinel Butte 0 in 4920 ft
Sasse Ridge 0 in 4200 ft

Earthquake Activity

City Distance Mag. Time & Date
No recent earthquake activity has been reported nearby.
Minimum magnitude displayed is 2.5.

Coastal Water Temperatures

Place Temperature
No Stations Reporting

Nearby Weather Stations

Station Location Temp. Heat Index Dew Point Humidity Wind Precip. Elev Updated Type
Winona-Silk Stocking Road, Endicott, WA 87.1 °F 84 °F 42 °F 21% SW  at  5.8 mph 0.00 in / hr 1483 ft 9:53 AM PDT Rapid Fire
MesoWest TESKE , Ritzville, WA 83 °F 81 °F - - North  at  - 0.00 in / hr 1759 ft 8:35 AM PDT MADIS

Show More Stations Show Fewer Stations